VTBU/UTP METAR and TAF weather

Enter ICAO airport designator
Station Type Date Time Source
VTBU METAR 2024/04/15 08:30 UTC NOAA

VTBU 150830Z 18012KT 9999 FEW020 33/26 Q1010 NOSIG


Station Type Date Time Source
VTBU Decoded METAR 2024/04/15 08:30 UTC NOAA

Rayong, Thailand (VTBU) 12-38N 101-21E 5M
Apr 15, 2024 - 04:30 AM EDT / 2024.04.15 0830 UTC
Wind: from the S (180 degrees) at 14 MPH (12 KT):0
Visibility: greater than 7 mile(s):0
Sky conditions: mostly clear
Temperature: 91 F (33 C)
Heat index: 106.2 F (41.2 C):1
Dew Point: 78 F (26 C)
Relative Humidity: 66%
Pressure (altimeter): 29.83 in. Hg (1010 hPa)
ob: VTBU 150830Z 18012KT 9999 FEW020 33/26 Q1010 NOSIG
cycle: 8

Station Type Date Time Source
VTBU TAF 2024/04/15 06:36 UTC NOAA